createdAt,value
2019-03-25T00:00:10.950Z,99.90
2019-03-25T00:02:40.333Z,99.90
2019-03-25T00:05:09.695Z,99.90
2019-03-25T00:07:39.063Z,99.90
2019-03-25T00:10:08.611Z,99.90
2019-03-25T00:12:37.969Z,99.90
2019-03-25T00:15:07.430Z,99.90
2019-03-25T00:17:36.799Z,99.90
2019-03-25T00:20:06.735Z,99.90
2019-03-25T00:22:36.082Z,99.90
2019-03-25T00:25:06.505Z,99.90
2019-03-25T00:27:35.879Z,99.90
2019-03-25T00:30:06.978Z,99.90
2019-03-25T00:32:36.350Z,99.90
2019-03-25T00:35:06.369Z,99.90
2019-03-25T00:37:35.781Z,99.90
2019-03-25T00:40:06.285Z,99.90
2019-03-25T00:42:35.667Z,99.90
2019-03-25T00:45:07.168Z,99.90
2019-03-25T00:47:36.527Z,99.90
2019-03-25T00:50:07.036Z,99.90
2019-03-25T00:52:36.432Z,99.90
2019-03-25T00:55:06.557Z,99.90
2019-03-25T00:57:35.939Z,99.90
2019-03-25T01:00:07.546Z,99.90
2019-03-25T01:02:36.921Z,99.90
2019-03-25T01:05:06.429Z,99.90
2019-03-25T01:07:35.871Z,99.90
2019-03-25T01:10:08.671Z,99.90
2019-03-25T01:12:38.029Z,99.90
2019-03-25T01:15:07.779Z,99.90
2019-03-25T01:17:37.143Z,99.90
2019-03-25T01:20:08.297Z,99.90
2019-03-25T01:22:37.715Z,99.90
2019-03-25T01:25:07.138Z,99.90
2019-03-25T01:27:36.524Z,99.90
2019-03-25T01:30:08.520Z,99.90
2019-03-25T01:32:37.906Z,99.90
2019-03-25T01:35:07.913Z,99.90
2019-03-25T01:37:37.296Z,99.90
2019-03-25T01:40:07.622Z,99.90
2019-03-25T01:42:37.047Z,99.90
2019-03-25T01:45:06.974Z,99.90
2019-03-25T01:47:36.344Z,99.90
2019-03-25T01:50:06.776Z,99.90
2019-03-25T01:52:36.133Z,99.90
2019-03-25T01:55:13.299Z,99.90
2019-03-25T01:57:36.875Z,99.90
2019-03-25T02:00:08.365Z,99.90
2019-03-25T02:02:37.795Z,99.90
2019-03-25T02:05:07.530Z,99.90
2019-03-25T02:07:36.888Z,99.90
2019-03-25T02:10:07.504Z,99.90
2019-03-25T02:12:36.882Z,99.90
2019-03-25T02:15:07.182Z,99.90
2019-03-25T02:17:36.589Z,99.90
2019-03-25T02:20:06.759Z,99.90
2019-03-25T02:22:36.262Z,99.90
2019-03-25T02:25:06.624Z,99.90
2019-03-25T02:27:36.018Z,99.90
2019-03-25T02:30:09.396Z,99.90
2019-03-25T02:32:38.844Z,99.90
2019-03-25T02:35:08.659Z,99.90
2019-03-25T02:37:37.964Z,99.90
2019-03-25T02:40:07.496Z,99.90
2019-03-25T02:42:36.857Z,99.90
2019-03-25T02:45:07.098Z,99.90
2019-03-25T02:47:36.459Z,99.90
2019-03-25T02:50:06.195Z,99.90
2019-03-25T02:52:35.564Z,99.90
2019-03-25T02:55:06.579Z,99.90
2019-03-25T02:57:35.960Z,99.90
2019-03-25T03:00:07.493Z,99.90
2019-03-25T03:02:36.875Z,99.90
2019-03-25T03:05:07.473Z,99.90
2019-03-25T03:07:36.927Z,99.90
2019-03-25T03:10:07.898Z,99.90
2019-03-25T03:12:37.297Z,99.90
2019-03-25T03:15:07.721Z,99.90
2019-03-25T03:17:37.154Z,99.90
2019-03-25T03:20:07.602Z,99.90
2019-03-25T03:22:36.989Z,99.90
2019-03-25T03:25:06.590Z,99.90
2019-03-25T03:27:36.237Z,99.90
2019-03-25T03:30:07.245Z,99.90
2019-03-25T03:32:36.617Z,99.90
2019-03-25T03:35:07.216Z,99.90
2019-03-25T03:37:36.664Z,99.90
2019-03-25T03:40:06.795Z,99.90
2019-03-25T03:42:36.237Z,99.90
2019-03-25T03:45:06.571Z,99.90
2019-03-25T03:47:37.582Z,99.90
2019-03-25T03:50:08.928Z,99.90
2019-03-25T03:52:38.864Z,99.90
2019-03-25T03:55:08.249Z,99.90
2019-03-25T03:57:37.824Z,99.90
2019-03-25T04:00:07.675Z,99.90
2019-03-25T04:02:37.055Z,99.90
2019-03-25T04:05:06.590Z,99.90
2019-03-25T04:07:35.965Z,99.90
2019-03-25T04:10:06.792Z,99.90
2019-03-25T04:12:36.176Z,99.90
2019-03-25T04:15:06.765Z,99.90
2019-03-25T04:17:36.208Z,99.90
2019-03-25T04:20:07.211Z,99.90
2019-03-25T04:22:36.579Z,99.90
2019-03-25T04:25:06.799Z,99.90
2019-03-25T04:27:36.226Z,99.90
2019-03-25T04:30:06.249Z,99.90
2019-03-25T04:32:35.637Z,99.90
2019-03-25T04:35:05.668Z,99.90
2019-03-25T04:37:35.119Z,99.90
2019-03-25T04:40:07.410Z,99.90
2019-03-25T04:42:36.841Z,99.90
2019-03-25T04:45:07.352Z,99.90
2019-03-25T04:47:36.769Z,99.90
2019-03-25T04:50:07.269Z,99.90
2019-03-25T04:52:36.662Z,99.90
2019-03-25T04:55:06.864Z,99.90
2019-03-25T04:57:36.446Z,99.90
2019-03-25T05:00:06.699Z,99.90
2019-03-25T05:02:36.235Z,99.90
2019-03-25T05:05:07.689Z,99.90
2019-03-25T05:07:37.194Z,99.90
2019-03-25T05:10:07.636Z,99.90
2019-03-25T05:12:37.136Z,99.90
2019-03-25T05:15:07.012Z,99.90
2019-03-25T05:17:36.386Z,99.90
2019-03-25T05:20:06.105Z,99.90
2019-03-25T05:22:35.484Z,99.90
2019-03-25T05:25:06.405Z,99.90
2019-03-25T05:27:35.818Z,99.90
2019-03-25T05:30:07.219Z,99.90
2019-03-25T05:32:36.667Z,99.90
2019-03-25T05:35:07.506Z,99.90
2019-03-25T05:37:36.965Z,99.90
2019-03-25T05:40:06.397Z,99.90
2019-03-25T05:42:35.882Z,99.90
2019-03-25T05:45:06.976Z,99.90
2019-03-25T05:47:36.445Z,99.90
2019-03-25T05:50:09.107Z,99.90
2019-03-25T05:52:38.721Z,99.90
2019-03-25T05:55:08.185Z,99.90
2019-03-25T05:57:37.547Z,99.90
2019-03-25T06:00:07.485Z,99.90
2019-03-25T06:02:36.814Z,99.90
2019-03-25T06:05:07.308Z,99.90
2019-03-25T06:07:36.677Z,99.90
2019-03-25T06:10:06.900Z,99.90
2019-03-25T06:12:36.271Z,99.90
2019-03-25T06:15:06.809Z,99.90
2019-03-25T06:17:36.510Z,99.90
2019-03-25T06:20:07.461Z,99.90
2019-03-25T06:22:36.905Z,99.90
2019-03-25T06:25:07.427Z,99.90
2019-03-25T06:27:37.283Z,99.90
2019-03-25T06:30:08.869Z,99.90
2019-03-25T06:32:38.303Z,99.90
2019-03-25T06:35:09.046Z,99.90
2019-03-25T06:37:38.751Z,99.90
2019-03-25T06:40:08.614Z,99.90
2019-03-25T06:42:37.997Z,99.90
2019-03-25T06:45:08.905Z,99.90
2019-03-25T06:47:38.276Z,99.90
2019-03-25T06:50:08.979Z,99.90
2019-03-25T06:52:38.362Z,99.90
2019-03-25T06:55:08.478Z,99.90
2019-03-25T06:57:38.804Z,99.90
2019-03-25T07:00:09.658Z,99.90
2019-03-25T07:02:39.043Z,99.90
2019-03-25T07:05:08.750Z,99.90
2019-03-25T07:07:38.208Z,99.90
2019-03-25T07:10:07.839Z,99.90
2019-03-25T07:12:37.483Z,99.90
2019-03-25T07:15:08.982Z,99.90
2019-03-25T07:17:38.490Z,99.90
2019-03-25T07:20:09.752Z,99.90
2019-03-25T07:22:39.146Z,99.90
2019-03-25T07:25:08.593Z,99.90
2019-03-25T07:27:38.011Z,99.90
2019-03-25T07:30:08.236Z,99.90
2019-03-25T07:32:37.612Z,99.90
2019-03-25T07:35:08.258Z,99.90
2019-03-25T07:37:37.637Z,99.90
2019-03-25T07:40:08.738Z,99.90
2019-03-25T07:42:38.179Z,99.90
2019-03-25T07:45:09.529Z,99.90
2019-03-25T07:47:38.913Z,99.90
2019-03-25T07:50:08.696Z,99.90
2019-03-25T07:52:38.205Z,99.90
2019-03-25T07:55:07.731Z,99.90
2019-03-25T07:57:47.787Z,99.90
2019-03-25T08:00:13.869Z,99.90
2019-03-25T08:02:42.687Z,99.90
2019-03-25T08:05:12.379Z,99.90
2019-03-25T08:07:41.758Z,99.90
2019-03-25T08:10:11.365Z,99.90
2019-03-25T08:12:40.863Z,99.90
2019-03-25T08:15:10.470Z,99.90
2019-03-25T08:17:39.882Z,99.90
2019-03-25T08:20:11.156Z,99.90
2019-03-25T08:22:40.590Z,99.90
2019-03-25T08:25:10.132Z,99.90
2019-03-25T08:27:39.493Z,99.90
2019-03-25T08:30:09.671Z,99.90
2019-03-25T08:32:39.036Z,99.90
2019-03-25T08:35:10.163Z,99.90
2019-03-25T08:37:39.531Z,99.90
2019-03-25T08:40:09.848Z,99.90
2019-03-25T08:42:39.223Z,99.90
2019-03-25T08:45:09.059Z,99.90
2019-03-25T08:47:38.472Z,99.90
2019-03-25T08:50:08.792Z,99.90
2019-03-25T08:52:38.186Z,99.90
2019-03-25T08:55:08.178Z,99.90
2019-03-25T08:57:37.560Z,99.90
2019-03-25T09:00:09.739Z,99.90
2019-03-25T09:02:39.112Z,99.90
2019-03-25T09:05:08.919Z,99.90
2019-03-25T09:07:38.296Z,99.90
2019-03-25T09:10:09.623Z,99.90
2019-03-25T09:12:39.139Z,99.90
2019-03-25T09:15:10.623Z,99.90
2019-03-25T09:17:40.102Z,99.90
2019-03-25T09:20:10.405Z,99.90
2019-03-25T09:22:39.924Z,99.90
2019-03-25T09:25:09.734Z,99.90
2019-03-25T09:27:39.112Z,99.90
2019-03-25T09:30:11.421Z,99.90
2019-03-25T09:32:40.848Z,99.90
2019-03-25T09:35:10.570Z,99.90
2019-03-25T09:37:40.106Z,99.90
2019-03-25T09:40:11.089Z,99.90
2019-03-25T09:42:40.518Z,99.90
2019-03-25T09:45:10.366Z,99.90
2019-03-25T09:47:39.811Z,99.90
2019-03-25T09:50:09.974Z,99.90
2019-03-25T09:52:39.402Z,99.90
2019-03-25T09:55:08.995Z,99.90
2019-03-25T09:57:38.396Z,99.90
2019-03-25T10:00:10.899Z,99.90
2019-03-25T10:02:40.227Z,99.90
2019-03-25T10:05:09.894Z,99.90
2019-03-25T10:07:39.270Z,99.90
2019-03-25T10:10:09.214Z,99.90
2019-03-25T10:12:38.646Z,99.90
2019-03-25T10:15:09.653Z,99.50
2019-03-25T10:17:39.100Z,99.90
2019-03-25T10:20:08.807Z,98.70
2019-03-25T10:22:38.702Z,98.80
2019-03-25T10:25:08.913Z,97.60
2019-03-25T10:27:38.388Z,96.00
2019-03-25T10:30:13.562Z,95.50
2019-03-25T10:32:43.121Z,95.60
2019-03-25T10:35:13.462Z,95.40
2019-03-25T10:37:42.932Z,97.90
2019-03-25T10:40:13.131Z,99.90
2019-03-25T10:42:42.513Z,99.90
2019-03-25T10:45:12.446Z,99.90
2019-03-25T10:47:41.858Z,99.90
2019-03-25T10:50:12.871Z,99.90
2019-03-25T10:52:42.246Z,99.90
2019-03-25T10:55:11.711Z,99.90
2019-03-25T10:57:41.093Z,99.50
2019-03-25T11:00:12.346Z,95.50
2019-03-25T11:02:41.869Z,95.80
2019-03-25T11:05:11.350Z,99.90
2019-03-25T11:10:10.579Z,99.90
2019-03-25T11:12:39.995Z,99.90
2019-03-25T11:15:09.906Z,99.90
2019-03-25T11:17:39.284Z,92.30
2019-03-25T11:20:09.576Z,88.70
2019-03-25T11:22:39.014Z,80.20
2019-03-25T11:25:09.041Z,66.30
2019-03-25T11:27:38.445Z,58.50
2019-03-25T11:30:09.993Z,57.10
2019-03-25T11:32:39.318Z,56.00
2019-03-25T11:35:09.638Z,57.60
2019-03-25T11:37:39.035Z,60.70
2019-03-25T11:40:10.013Z,65.00
2019-03-25T11:42:39.395Z,80.90
2019-03-25T11:45:10.459Z,94.60
2019-03-25T11:47:39.824Z,99.90
2019-03-25T11:50:10.895Z,99.90
2019-03-25T11:52:40.363Z,99.90
2019-03-25T11:55:10.068Z,99.90
2019-03-25T11:57:39.351Z,99.90
2019-03-25T12:00:09.189Z,99.90
2019-03-25T12:02:38.618Z,99.90
2019-03-25T12:05:08.219Z,96.60
2019-03-25T12:07:37.937Z,99.90
2019-03-25T12:10:07.800Z,99.90
2019-03-25T12:12:37.176Z,99.90
2019-03-25T12:15:08.382Z,99.90
2019-03-25T12:17:37.686Z,94.60
2019-03-25T12:20:07.922Z,91.40
2019-03-25T12:22:37.384Z,77.10
2019-03-25T12:25:07.600Z,92.20
2019-03-25T12:27:37.348Z,99.90
2019-03-25T12:30:09.119Z,99.90
2019-03-25T12:32:38.463Z,99.90
2019-03-25T12:35:08.538Z,99.90
2019-03-25T12:37:38.015Z,99.90
2019-03-25T12:40:08.005Z,99.90
2019-03-25T12:42:37.557Z,99.90
2019-03-25T12:45:07.701Z,99.90
2019-03-25T12:47:37.058Z,99.90
2019-03-25T12:50:07.669Z,99.90
2019-03-25T12:52:37.020Z,99.90
2019-03-25T12:55:06.557Z,99.90
2019-03-25T12:57:35.936Z,99.90
2019-03-25T13:00:07.200Z,98.40
2019-03-25T13:02:36.639Z,88.10
2019-03-25T13:05:06.891Z,73.30
2019-03-25T13:07:36.249Z,60.80
2019-03-25T13:10:06.316Z,67.40
2019-03-25T13:12:35.769Z,56.10
2019-03-25T13:15:06.949Z,55.00
2019-03-25T13:17:36.336Z,64.10
2019-03-25T13:20:06.594Z,71.80
2019-03-25T13:22:36.105Z,73.00
2019-03-25T13:25:06.003Z,77.10
2019-03-25T13:27:35.395Z,73.50
2019-03-25T13:30:07.860Z,76.50
2019-03-25T13:32:39.430Z,69.70
2019-03-25T13:35:10.012Z,78.40
2019-03-25T13:37:39.486Z,85.40
2019-03-25T13:40:09.473Z,90.70
2019-03-25T13:42:38.927Z,92.30
2019-03-25T13:45:08.529Z,98.30
2019-03-25T13:47:37.903Z,99.90
2019-03-25T13:50:07.481Z,99.90
2019-03-25T13:52:36.909Z,99.90
2019-03-25T13:55:06.719Z,99.90
2019-03-25T13:57:36.083Z,99.90
2019-03-25T14:00:07.689Z,99.90
2019-03-25T14:02:37.048Z,99.90
2019-03-25T14:05:07.304Z,91.60
2019-03-25T14:07:38.658Z,82.30
2019-03-25T14:10:09.265Z,72.20
2019-03-25T14:12:38.647Z,73.30
2019-03-25T14:15:09.011Z,64.60
2019-03-25T14:17:38.423Z,61.00
2019-03-25T14:20:09.971Z,63.00
2019-03-25T14:22:39.335Z,79.00
2019-03-25T14:25:09.119Z,94.30
2019-03-25T14:27:38.576Z,99.90
2019-03-25T14:30:14.367Z,99.90
2019-03-25T14:32:40.287Z,99.90
2019-03-25T14:35:09.780Z,99.90
2019-03-25T14:37:39.180Z,98.60
2019-03-25T14:40:08.870Z,89.40
2019-03-25T14:42:38.272Z,91.50
2019-03-25T14:45:09.188Z,84.60
2019-03-25T14:47:38.578Z,74.90
2019-03-25T14:50:08.286Z,72.60
2019-03-25T14:52:37.595Z,85.00
2019-03-25T14:55:10.479Z,97.20
2019-03-25T14:57:39.880Z,99.90
2019-03-25T15:00:10.953Z,99.90
2019-03-25T15:02:40.326Z,99.90
2019-03-25T15:05:10.339Z,99.90
2019-03-25T15:07:39.721Z,99.90
2019-03-25T15:10:09.430Z,99.90
2019-03-25T15:12:38.795Z,99.90
2019-03-25T15:15:09.715Z,99.90
2019-03-25T15:17:39.178Z,99.90
2019-03-25T15:20:11.890Z,99.90
2019-03-25T15:22:41.247Z,99.90
2019-03-25T15:25:10.992Z,99.90
2019-03-25T15:27:40.356Z,99.90
2019-03-25T15:30:10.394Z,99.90
2019-03-25T15:32:39.775Z,99.90
2019-03-25T15:35:09.526Z,99.90
2019-03-25T15:37:38.989Z,99.90
2019-03-25T15:40:10.704Z,96.80
2019-03-25T15:42:40.230Z,88.40
2019-03-25T15:45:10.282Z,92.90
2019-03-25T15:47:40.475Z,99.90
2019-03-25T15:50:11.273Z,99.90
2019-03-25T15:52:42.345Z,99.90
2019-03-25T15:55:12.251Z,99.90
2019-03-25T15:57:41.755Z,99.90
2019-03-25T16:00:16.757Z,99.90
2019-03-25T16:02:46.284Z,99.90
2019-03-25T16:05:16.472Z,99.90
2019-03-25T16:07:46.010Z,99.90
2019-03-25T16:10:17.049Z,99.90
2019-03-25T16:12:46.950Z,99.90
2019-03-25T16:15:19.432Z,99.90
2019-03-25T16:17:48.834Z,99.90
2019-03-25T16:20:18.289Z,99.90
2019-03-25T16:22:47.695Z,99.90
2019-03-25T16:25:20.237Z,99.90
2019-03-25T16:27:49.587Z,99.90
2019-03-25T16:30:19.785Z,99.90
2019-03-25T16:32:49.190Z,99.90
2019-03-25T16:35:18.842Z,99.90
2019-03-25T16:37:48.225Z,99.90
2019-03-25T16:40:17.788Z,99.90
2019-03-25T16:42:47.222Z,99.90
2019-03-25T16:45:16.657Z,99.90
2019-03-25T16:47:46.084Z,99.90
2019-03-25T16:50:15.511Z,99.90
2019-03-25T16:52:44.990Z,99.90
2019-03-25T16:55:15.631Z,99.90
2019-03-25T16:57:45.822Z,99.90
2019-03-25T17:00:26.583Z,99.90
2019-03-25T17:02:46.551Z,99.90
2019-03-25T17:05:15.933Z,99.90
2019-03-25T17:07:45.352Z,99.90
2019-03-25T17:10:14.843Z,99.90
2019-03-25T17:12:44.273Z,99.90
2019-03-25T17:15:13.912Z,99.90
2019-03-25T17:17:43.284Z,99.90
2019-03-25T17:20:12.884Z,99.90
2019-03-25T17:22:44.989Z,99.90
2019-03-25T17:25:15.516Z,99.90
2019-03-25T17:27:44.891Z,99.90
2019-03-25T17:30:15.920Z,99.90
2019-03-25T17:32:45.301Z,99.90
2019-03-25T17:35:14.790Z,99.90
2019-03-25T17:37:44.245Z,99.90
2019-03-25T17:40:14.042Z,99.90
2019-03-25T17:42:43.590Z,99.90
2019-03-25T17:45:13.290Z,99.90
2019-03-25T17:47:42.688Z,99.90
2019-03-25T17:50:12.542Z,99.90
2019-03-25T17:52:42.010Z,99.90
2019-03-25T17:55:11.494Z,99.90
2019-03-25T17:57:40.947Z,99.90
2019-03-25T18:00:13.442Z,99.90
2019-03-25T18:02:42.813Z,99.90
2019-03-25T18:05:12.641Z,99.90
2019-03-25T18:07:42.016Z,99.90
2019-03-25T18:10:11.633Z,99.90
2019-03-25T18:12:41.062Z,99.90
2019-03-25T18:15:11.212Z,99.90
2019-03-25T18:17:40.593Z,99.90
2019-03-25T18:20:18.675Z,99.90
2019-03-25T18:22:41.219Z,99.90
2019-03-25T18:25:10.662Z,99.90
2019-03-25T18:27:40.115Z,99.90
2019-03-25T18:30:10.164Z,99.90
2019-03-25T18:32:39.653Z,99.90
2019-03-25T18:35:10.595Z,99.90
2019-03-25T18:37:39.992Z,99.90
2019-03-25T18:40:09.505Z,99.90
2019-03-25T18:42:38.900Z,99.90
2019-03-25T18:45:09.886Z,99.90
2019-03-25T18:47:39.273Z,99.90
2019-03-25T18:50:08.781Z,99.90
2019-03-25T18:52:38.245Z,99.90
2019-03-25T18:55:07.979Z,99.90
2019-03-25T18:57:37.488Z,99.90
2019-03-25T19:00:12.207Z,99.90
2019-03-25T19:02:41.648Z,99.90
2019-03-25T19:05:11.141Z,99.90
2019-03-25T19:07:43.207Z,99.90
2019-03-25T19:10:15.702Z,99.90
2019-03-25T19:12:45.106Z,99.90
2019-03-25T19:15:17.899Z,99.90
2019-03-25T19:17:50.606Z,99.90
2019-03-25T19:20:22.612Z,99.90
2019-03-25T19:22:58.202Z,99.90
2019-03-25T19:25:33.168Z,99.90
2019-03-25T19:28:03.703Z,99.90
2019-03-25T19:30:33.832Z,99.90
2019-03-25T19:33:03.924Z,99.90
2019-03-25T19:35:33.438Z,99.90
2019-03-25T19:38:02.856Z,99.90
2019-03-25T19:40:32.315Z,99.90
2019-03-25T19:43:01.807Z,99.90
2019-03-25T19:45:31.206Z,99.90
2019-03-25T19:48:00.632Z,99.90
2019-03-25T19:50:30.057Z,99.90
2019-03-25T19:52:59.526Z,99.90
2019-03-25T19:55:28.918Z,99.90
2019-03-25T19:57:58.361Z,99.90
2019-03-25T20:00:38.906Z,99.90
2019-03-25T20:03:08.419Z,99.90
2019-03-25T20:05:37.934Z,99.90
2019-03-25T20:08:07.405Z,99.90
2019-03-25T20:10:37.480Z,99.90
2019-03-25T20:13:07.200Z,99.90
2019-03-25T20:15:45.879Z,99.90
2019-03-25T20:18:11.827Z,99.90
2019-03-25T20:20:41.333Z,99.90
2019-03-25T20:23:10.927Z,99.90
2019-03-25T20:25:40.411Z,99.90
2019-03-25T20:28:09.997Z,99.90
2019-03-25T20:30:39.637Z,99.90
2019-03-25T20:33:09.297Z,99.90
2019-03-25T20:35:38.803Z,99.90
2019-03-25T20:38:08.351Z,99.90
2019-03-25T20:40:38.374Z,99.90
2019-03-25T20:43:07.897Z,99.90
2019-03-25T20:45:37.398Z,99.90
2019-03-25T20:48:06.864Z,99.90
2019-03-25T20:50:36.794Z,99.90
2019-03-25T20:53:08.450Z,99.90
2019-03-25T20:55:39.103Z,99.90
2019-03-25T20:58:11.489Z,99.90
2019-03-25T21:00:54.334Z,99.90
2019-03-25T21:03:24.090Z,99.90
2019-03-25T21:05:53.851Z,99.90
2019-03-25T21:08:23.672Z,99.90
2019-03-25T21:10:53.658Z,99.90
2019-03-25T21:13:24.227Z,99.90
2019-03-25T21:15:55.241Z,99.90
2019-03-25T21:18:26.614Z,99.90
2019-03-25T21:20:56.566Z,99.90
2019-03-25T21:23:26.635Z,99.90
2019-03-25T21:25:56.419Z,99.90
2019-03-25T21:28:26.144Z,99.90
2019-03-25T21:30:56.067Z,99.90
2019-03-25T21:33:27.779Z,99.90
2019-03-25T21:35:59.875Z,99.90
2019-03-25T21:38:29.549Z,99.90
2019-03-25T21:40:59.451Z,99.90
2019-03-25T21:43:29.314Z,99.90
2019-03-25T21:45:59.590Z,99.90
2019-03-25T21:48:30.763Z,99.90
2019-03-25T21:51:00.600Z,99.90
2019-03-25T21:53:31.531Z,99.90
2019-03-25T21:56:01.857Z,99.90
2019-03-25T21:58:31.941Z,99.90
2019-03-25T22:01:02.275Z,99.90
2019-03-25T22:03:32.162Z,99.90
2019-03-25T22:06:02.019Z,99.90
2019-03-25T22:08:33.312Z,99.90
2019-03-25T22:11:03.148Z,99.90
2019-03-25T22:13:32.568Z,99.90
2019-03-25T22:16:01.936Z,99.90
2019-03-25T22:18:31.333Z,99.90
2019-03-25T22:21:00.762Z,99.90
2019-03-25T22:23:30.250Z,99.90
2019-03-25T22:25:59.721Z,99.90
2019-03-25T22:28:29.092Z,99.90
2019-03-25T22:30:58.475Z,99.90
2019-03-25T22:33:27.888Z,99.90
2019-03-25T22:35:57.268Z,99.90
2019-03-25T22:38:26.860Z,99.90
2019-03-25T22:40:56.248Z,99.90
2019-03-25T22:43:25.678Z,99.90
2019-03-25T22:45:55.125Z,99.90
2019-03-25T22:48:24.559Z,99.90
2019-03-25T22:50:53.943Z,99.90
2019-03-25T22:53:23.309Z,99.90
2019-03-25T22:55:52.673Z,99.90
2019-03-25T22:58:22.057Z,99.90
2019-03-25T23:00:51.689Z,99.90
2019-03-25T23:03:21.155Z,99.90
2019-03-25T23:05:50.600Z,99.90
2019-03-25T23:08:19.962Z,99.90
2019-03-25T23:10:49.372Z,99.90
2019-03-25T23:13:18.798Z,99.90
2019-03-25T23:15:48.189Z,99.90
2019-03-25T23:18:17.570Z,99.90
2019-03-25T23:20:46.954Z,99.90
2019-03-25T23:23:16.341Z,99.90
2019-03-25T23:25:45.733Z,99.90
2019-03-25T23:28:15.165Z,99.90
2019-03-25T23:30:44.544Z,99.90
2019-03-25T23:33:13.917Z,99.90
2019-03-25T23:35:43.305Z,99.90
2019-03-25T23:38:12.693Z,99.90
2019-03-25T23:40:42.124Z,99.90
2019-03-25T23:43:11.506Z,99.90
2019-03-25T23:45:40.899Z,99.90
2019-03-25T23:48:10.263Z,99.90
2019-03-25T23:50:39.655Z,99.90
2019-03-25T23:53:09.034Z,99.90
2019-03-25T23:55:38.501Z,99.90
2019-03-25T23:58:07.895Z,99.90
